Time;durP1;ratioP1;P1;durP2;ratioP2;P2;SDS_P1;SDS_P2;PMS_P1;PMS_P2;Temp;Humidity;BMP_temperature;BMP_pressure;BME280_temperature;BME280_humidity;BME280_pressure;Samples;Min_cycle;Max_cycle;Signal;HPM_P1;HPM_P2
2023/07/25 21:08:14;;;;;;;;;;;23.10;48.90;;;;;;1616044;72;632;-58
2023/07/25 21:10:16;;;;;;;;;;;23.10;48.80;;;;;;1573354;73;1141;-56
2023/07/25 21:12:18;;;;;;;;;;;23.10;49.10;;;;;;1572356;73;686;-57
2023/07/25 21:14:20;;;;;;;;;;;23.10;48.90;;;;;;1579478;73;769;-58
2023/07/25 21:16:21;;;;;;;;;;;23.10;48.80;;;;;;1581904;73;777;-55
2023/07/25 21:18:23;;;;;;;;;;;23.10;48.70;;;;;;1566951;73;753;-58
2023/07/25 21:20:25;;;;;;;;;;;23.10;48.80;;;;;;1581017;73;1157;-57
2023/07/25 21:22:27;;;;;;;;;;;23.00;48.60;;;;;;1586606;73;1139;-56
2023/07/25 21:24:32;;;;;;;;;;;23.00;48.50;;;;;;1580661;73;716;-58
2023/07/25 21:26:33;;;;;;;;;;;23.00;48.60;;;;;;1594237;73;1949;-58
2023/07/25 21:28:34;;;;;;;;;;;23.00;48.60;;;;;;1578957;73;783;-56
2023/07/25 21:30:36;;;;;;;;;;;23.00;48.60;;;;;;1593840;73;1108;-57
2023/07/25 21:32:38;;;;;;;;;;;23.00;48.60;;;;;;1568650;73;713;-56
2023/07/25 21:34:42;;;;;;;;;;;23.00;48.60;;;;;;1581998;73;872;-56
2023/07/25 21:36:45;;;;;;;;;;;23.00;48.60;;;;;;1565767;73;2376;-58
2023/07/25 21:38:47;;;;;;;;;;;23.00;48.60;;;;;;1565429;73;704;-57
2023/07/25 21:40:49;;;;;;;;;;;23.00;48.60;;;;;;1583186;73;700;-58
2023/07/25 21:42:51;;;;;;;;;;;23.00;48.60;;;;;;1574969;73;717;-58
2023/07/25 21:44:53;;;;;;;;;;;23.00;48.60;;;;;;1572871;73;758;-57
2023/07/25 21:46:55;;;;;;;;;;;23.00;48.50;;;;;;1592590;73;1934;-56
2023/07/25 21:48:57;;;;;;;;;;;23.10;48.60;;;;;;1590286;73;1142;-56
2023/07/25 21:50:59;;;;;;;;;;;23.00;48.60;;;;;;1598439;73;756;-57
2023/07/25 21:53:01;;;;;;;;;;;23.00;48.60;;;;;;1586699;73;835;-58
2023/07/25 21:55:03;;;;;;;;;;;23.00;48.50;;;;;;1594496;73;731;-57
2023/07/25 21:57:05;;;;;;;;;;;23.00;48.40;;;;;;1592912;73;758;-57
2023/07/25 21:59:07;;;;;;;;;;;23.00;48.50;;;;;;1580877;73;1170;-57
2023/07/25 22:01:09;;;;;;;;;;;23.00;48.50;;;;;;1576533;73;755;-56
2023/07/25 22:03:10;;;;;;;;;;;23.00;48.50;;;;;;1577947;73;726;-57
2023/07/25 22:05:14;;;;;;;;;;;23.10;48.60;;;;;;1575181;73;746;-57
2023/07/25 22:07:15;;;;;;;;;;;23.00;48.50;;;;;;1573099;73;1940;-57
2023/07/25 22:09:17;;;;;;;;;;;23.00;48.40;;;;;;1567160;74;1188;-58
2023/07/25 22:11:19;;;;;;;;;;;23.00;48.40;;;;;;1572675;74;722;-58
2023/07/25 22:13:21;;;;;;;;;;;23.00;48.30;;;;;;1575160;73;932;-58
2023/07/25 22:15:25;;;;;;;;;;;23.00;48.20;;;;;;1560989;73;694;-59
2023/07/25 22:17:27;;;;;;;;;;;23.00;48.30;;;;;;1571163;74;1937;-58
2023/07/25 22:19:29;;;;;;;;;;;22.90;48.20;;;;;;1576648;74;1153;-58
2023/07/25 22:21:30;;;;;;;;;;;23.00;48.20;;;;;;1558998;73;764;-58
2023/07/25 22:23:32;;;;;;;;;;;22.90;48.00;;;;;;1544959;75;754;-59
2023/07/25 22:25:34;;;;;;;;;;;22.90;47.80;;;;;;1561662;73;702;-58
2023/07/25 22:27:36;;;;;;;;;;;22.90;47.70;;;;;;1569550;73;1949;-57
2023/07/25 22:29:38;;;;;;;;;;;22.90;47.60;;;;;;1554544;74;1094;-58
2023/07/25 22:31:40;;;;;;;;;;;22.90;47.50;;;;;;1558279;74;717;-56
2023/07/25 22:33:42;;;;;;;;;;;22.90;47.50;;;;;;1557543;74;726;-56
2023/07/25 22:35:44;;;;;;;;;;;22.90;47.50;;;;;;1562756;73;666;-57
2023/07/25 22:37:59;;;;;;;;;;;22.80;47.20;;;;;;1564919;73;742;-55
2023/07/25 22:40:01;;;;;;;;;;;22.80;47.10;;;;;;1565763;73;1200;-57
2023/07/25 22:42:04;;;;;;;;;;;22.90;47.20;;;;;;1570905;74;788;-56
2023/07/25 22:44:06;;;;;;;;;;;22.80;47.10;;;;;;1565648;74;846;-56
2023/07/25 22:46:08;;;;;;;;;;;22.90;47.30;;;;;;1575986;74;677;-57
2023/07/25 22:48:10;;;;;;;;;;;22.80;47.10;;;;;;1583606;74;1937;-57
2023/07/25 22:50:13;;;;;;;;;;;22.80;47.10;;;;;;1571141;74;1154;-56
2023/07/25 22:52:15;;;;;;;;;;;22.80;47.10;;;;;;1581244;74;719;-56
2023/07/25 22:54:17;;;;;;;;;;;22.80;47.10;;;;;;1571478;74;803;-56
2023/07/25 22:56:18;;;;;;;;;;;22.80;47.00;;;;;;1569377;74;729;-56
2023/07/25 22:58:20;;;;;;;;;;;22.80;47.20;;;;;;1558475;73;697;-55
2023/07/25 23:00:22;;;;;;;;;;;22.80;47.20;;;;;;1567486;74;1145;-56
2023/07/25 23:02:24;;;;;;;;;;;22.80;47.20;;;;;;1577147;74;673;-56
2023/07/25 23:04:26;;;;;;;;;;;22.80;47.20;;;;;;1555881;73;741;-56
2023/07/25 23:06:28;;;;;;;;;;;22.80;47.20;;;;;;1553842;73;758;-56
2023/07/25 23:08:30;;;;;;;;;;;22.80;47.10;;;;;;1578417;74;1956;-57
2023/07/25 23:10:32;;;;;;;;;;;22.80;47.10;;;;;;1575424;73;1159;-56
2023/07/25 23:12:34;;;;;;;;;;;22.80;47.20;;;;;;1568944;74;735;-55
2023/07/25 23:14:35;;;;;;;;;;;22.80;47.10;;;;;;1579485;73;790;-56
2023/07/25 23:16:37;;;;;;;;;;;22.80;47.10;;;;;;1580597;73;770;-56
2023/07/25 23:18:39;;;;;;;;;;;22.80;47.10;;;;;;1591067;73;725;-57
2023/07/25 23:20:41;;;;;;;;;;;22.80;47.20;;;;;;1585572;74;1151;-56
2023/07/25 23:22:43;;;;;;;;;;;22.80;47.20;;;;;;1578958;73;1283;-58
2023/07/25 23:24:45;;;;;;;;;;;22.70;47.10;;;;;;1579817;73;720;-57
2023/07/25 23:26:47;;;;;;;;;;;22.80;47.10;;;;;;1574814;74;772;-58
2023/07/25 23:28:48;;;;;;;;;;;22.80;47.20;;;;;;1572745;73;1936;-58
2023/07/25 23:30:50;;;;;;;;;;;22.80;47.20;;;;;;1570352;73;735;-57
2023/07/25 23:32:52;;;;;;;;;;;22.70;47.20;;;;;;1577097;73;815;-57
2023/07/25 23:34:54;;;;;;;;;;;22.80;47.20;;;;;;1573783;73;711;-57
2023/07/25 23:36:56;;;;;;;;;;;22.80;47.30;;;;;;1576451;74;881;-57
2023/07/25 23:38:58;;;;;;;;;;;22.80;47.30;;;;;;1577006;74;1120;-58
2023/07/25 23:41:00;;;;;;;;;;;22.80;47.30;;;;;;1584210;73;946;-56
2023/07/25 23:43:02;;;;;;;;;;;22.70;47.30;;;;;;1568849;73;769;-57
2023/07/25 23:45:04;;;;;;;;;;;22.80;47.30;;;;;;1584653;73;755;-56
2023/07/25 23:47:06;;;;;;;;;;;22.80;47.20;;;;;;1574800;73;711;-57
2023/07/25 23:49:08;;;;;;;;;;;22.70;47.30;;;;;;1580919;73;1929;-56
2023/07/25 23:51:10;;;;;;;;;;;22.70;47.30;;;;;;1572610;74;1527;-57
2023/07/25 23:53:11;;;;;;;;;;;22.70;47.20;;;;;;1584982;74;731;-57
2023/07/25 23:55:14;;;;;;;;;;;22.80;47.30;;;;;;1571947;74;590;-56
2023/07/25 23:57:16;;;;;;;;;;;22.70;47.30;;;;;;1581224;73;591;-57
2023/07/25 23:59:18;;;;;;;;;;;22.80;47.20;;;;;;1590633;74;1140;-60
